Time;durP1;ratioP1;P1;durP2;ratioP2;P2;SDS_P1;SDS_P2;PMS_P1;PMS_P2;Temp;Humidity;BMP_temperature;BMP_pressure;BME280_temperature;BME280_humidity;BME280_pressure;Samples;Min_cycle;Max_cycle;Signal;HPM_P1;HPM_P2
2022/09/12 07:45:57;;;;;;;2.35;0.88;;;;;;;;;;6275239;22;20103;-82
2022/09/12 07:48:23;;;;;;;1.38;1.13;;;;;;;;;;6258594;22;20008;-85
2022/09/12 07:50:58;;;;;;;2.95;1.27;;;;;;;;;;6247787;23;20015;-82
2022/09/12 08:27:00;;;;;;;2.05;0.70;;;;;;;;;;6267410;22;20457;-87
2022/09/12 08:29:26;;;;;;;1.05;0.90;;;;;;;;;;6278179;22;20004;-84
2022/09/12 08:31:51;;;;;;;1.40;0.80;;;;;;;;;;6278209;22;20407;-84
2022/09/12 08:34:18;;;;;;;1.48;0.70;;;;;;;;;;6260755;22;20016;-85
2022/09/12 08:36:43;;;;;;;1.38;0.75;;;;;;;;;;6247368;23;20089;-86
2022/09/12 08:39:11;;;;;;;2.55;0.85;;;;;;;;;;6247793;23;20011;-86
2022/09/12 08:41:46;;;;;;;2.20;0.98;;;;;;;;;;6247403;23;20004;-82
2022/09/12 08:44:25;;;;;;;1.75;0.90;;;;;;;;;;6247400;22;20010;-80
2022/09/12 08:46:59;;;;;;;1.17;1.08;;;;;;;;;;6246967;23;20000;-86
2022/09/12 08:49:32;;;;;;;2.45;1.00;;;;;;;;;;6247609;23;20368;-87
2022/09/12 08:52:01;;;;;;;2.50;0.80;;;;;;;;;;6248166;23;20015;-84
2022/09/12 08:54:28;;;;;;;1.23;1.05;;;;;;;;;;6247522;22;20006;-87
2022/09/12 08:57:14;;;;;;;0.98;0.93;;;;;;;;;;6247882;23;20079;-86
2022/09/12 08:59:44;;;;;;;1.95;0.82;;;;;;;;;;6247838;23;20327;-86
2022/09/12 09:02:37;;;;;;;1.90;0.80;;;;;;;;;;6247631;23;20007;-81
2022/09/12 09:05:21;;;;;;;2.72;0.70;;;;;;;;;;6247079;22;20000;-83
2022/09/12 09:08:15;;;;;;;1.25;0.70;;;;;;;;;;6247174;23;20011;-82
2022/09/12 09:10:58;;;;;;;2.03;1.00;;;;;;;;;;6247127;23;20054;-83
2022/09/12 09:16:31;;;;;;;3.97;1.05;;;;;;;;;;6247209;23;20018;-81
2022/09/12 09:19:08;;;;;;;0.95;0.80;;;;;;;;;;6222502;23;20016;-84
2022/09/12 09:21:42;;;;;;;1.98;1.15;;;;;;;;;;6246860;23;20008;-81
2022/09/12 09:24:17;;;;;;;2.80;2.38;;;;;;;;;;6247034;22;20050;-81
2022/09/12 09:26:50;;;;;;;0.90;0.90;;;;;;;;;;6246690;23;20058;-80
2022/09/12 09:29:18;;;;;;;1.88;1.00;;;;;;;;;;6219864;23;20332;-80
2022/09/12 09:31:51;;;;;;;2.30;1.10;;;;;;;;;;6246880;23;20419;-83
2022/09/12 09:34:22;;;;;;;0.63;0.63;;;;;;;;;;6246683;22;20004;-87
2022/09/12 09:37:09;;;;;;;2.00;0.70;;;;;;;;;;6246967;23;20316;-86
2022/09/12 09:39:52;;;;;;;0.73;0.68;;;;;;;;;;6246683;23;20027;-81
2022/09/12 09:42:21;;;;;;;1.70;0.82;;;;;;;;;;6246926;23;19996;-84
2022/09/12 09:44:47;;;;;;;2.10;0.70;;;;;;;;;;6247111;22;20000;-88
2022/09/12 09:47:14;;;;;;;0.80;0.80;;;;;;;;;;6246872;23;20004;-87
2022/09/12 09:49:40;;;;;;;0.73;0.73;;;;;;;;;;6246498;23;20398;-80
2022/09/12 09:52:07;;;;;;;1.00;0.68;;;;;;;;;;6247113;23;20004;-80
2022/09/12 09:54:38;;;;;;;0.60;0.60;;;;;;;;;;6246838;22;20000;-87
2022/09/12 09:57:04;;;;;;;1.17;0.75;;;;;;;;;;6246522;23;20004;-81
2022/09/12 09:59:32;;;;;;;6.03;2.65;;;;;;;;;;6246967;23;20367;-86
2022/09/12 10:02:02;;;;;;;1.43;1.33;;;;;;;;;;6246675;23;20423;-79
2022/09/12 10:04:38;;;;;;;1.08;0.68;;;;;;;;;;6246510;22;20008;-80
2022/09/12 10:07:04;;;;;;;1.73;0.80;;;;;;;;;;6246423;23;20000;-81
2022/09/12 10:09:34;;;;;;;1.20;1.08;;;;;;;;;;6246500;23;20059;-81
2022/09/12 11:40:58;;;;;;;1.17;0.80;;;;;;;;;;6207242;22;21584;-83
2022/09/12 11:43:46;;;;;;;1.75;0.93;;;;;;;;;;6272553;22;20008;-84
2022/09/12 16:46:34;;;;;;;1.95;1.55;;;;;;;;;;6297480;22;20016;-82
2022/09/12 16:49:00;;;;;;;2.83;1.67;;;;;;;;;;6270522;22;20011;-78
2022/09/12 16:51:46;;;;;;;2.00;1.40;;;;;;;;;;6278822;22;19999;-81
2022/09/12 16:54:16;;;;;;;1.95;1.70;;;;;;;;;;6252820;23;20475;-84
2022/09/12 16:56:43;;;;;;;3.72;1.70;;;;;;;;;;6257778;23;20027;-77
2022/09/12 16:59:15;;;;;;;1.80;1.70;;;;;;;;;;6251033;23;20000;-78
2022/09/12 17:01:41;;;;;;;1.70;1.60;;;;;;;;;;6255933;23;19992;-84
2022/09/12 17:04:10;;;;;;;3.40;1.65;;;;;;;;;;6251986;23;20046;-93
2022/09/12 17:06:35;;;;;;;2.47;1.52;;;;;;;;;;6253994;23;20450;-83
2022/09/12 17:09:03;;;;;;;1.98;1.63;;;;;;;;;;6250444;23;20000;-91
2022/09/12 17:11:32;;;;;;;1.92;1.70;;;;;;;;;;6247334;23;20300;-79
2022/09/12 17:13:59;;;;;;;2.47;1.58;;;;;;;;;;6246972;23;20051;-79
2022/09/12 17:16:25;;;;;;;1.95;1.40;;;;;;;;;;6247175;23;20000;-81
2022/09/12 17:18:52;;;;;;;1.95;1.67;;;;;;;;;;6247207;23;20000;-81
2022/09/12 17:21:18;;;;;;;2.60;1.75;;;;;;;;;;6247847;23;20506;-77
2022/09/12 17:23:44;;;;;;;2.03;1.67;;;;;;;;;;6248683;23;20000;-80
2022/09/12 17:26:11;;;;;;;5.85;4.38;;;;;;;;;;6247235;23;20000;-83
2022/09/12 17:28:38;;;;;;;3.33;2.63;;;;;;;;;;6248429;23;20327;-96
2022/09/12 17:31:06;;;;;;;4.75;2.17;;;;;;;;;;6222162;23;20015;-86
2022/09/12 17:33:32;;;;;;;2.00;1.80;;;;;;;;;;6247435;23;20001;-82
2022/09/12 17:36:04;;;;;;;3.22;1.90;;;;;;;;;;6249147;23;20011;-78
2022/09/12 17:38:34;;;;;;;2.10;1.90;;;;;;;;;;6247902;23;20000;-79
2022/09/12 17:41:16;;;;;;;2.88;1.38;;;;;;;;;;6250493;23;20011;-91
2022/09/12 17:43:47;;;;;;;2.58;1.73;;;;;;;;;;6246998;23;20054;-77
2022/09/12 17:46:13;;;;;;;1.73;1.50;;;;;;;;;;6221805;23;20012;-77
2022/09/12 17:48:40;;;;;;;1.88;1.52;;;;;;;;;;6249295;22;20042;-77
2022/09/12 17:51:12;;;;;;;1.90;1.48;;;;;;;;;;6247090;23;20012;-78
2022/09/12 17:53:38;;;;;;;1.70;1.60;;;;;;;;;;6247849;22;20018;-82
2022/09/12 17:56:05;;;;;;;1.83;1.58;;;;;;;;;;6246923;22;20035;-77
2022/09/12 17:58:31;;;;;;;2.72;1.80;;;;;;;;;;6246459;22;20000;-77
2022/09/12 20:38:58;;;;;;;1.70;1.60;;;;;;;;;;6287076;22;20047;-79
2022/09/12 20:41:27;;;;;;;2.30;1.98;;;;;;;;;;6277675;22;20304;-82
2022/09/12 20:43:54;;;;;;;2.10;2.00;;;;;;;;;;6273775;22;20011;-75
2022/09/12 20:46:20;;;;;;;3.33;2.08;;;;;;;;;;6247400;23;20031;-85
2022/09/12 20:48:46;;;;;;;2.47;1.65;;;;;;;;;;6220464;23;20000;-85
2022/09/12 20:51:12;;;;;;;2.70;1.80;;;;;;;;;;6247246;23;20031;-75
2022/09/12 20:53:37;;;;;;;2.13;1.77;;;;;;;;;;6247219;22;20004;-75
2022/09/12 20:56:06;;;;;;;4.13;2.72;;;;;;;;;;6247286;23;20434;-82
2022/09/12 20:58:32;;;;;;;4.45;2.20;;;;;;;;;;6247399;23;20419;-89
2022/09/12 21:00:58;;;;;;;2.60;2.10;;;;;;;;;;6247051;23;20012;-88
2022/09/12 21:03:26;;;;;;;2.38;2.17;;;;;;;;;;6247212;23;20415;-75
2022/09/12 21:05:52;;;;;;;2.58;2.03;;;;;;;;;;6247125;22;20083;-77
2022/09/12 21:08:18;;;;;;;2.20;2.00;;;;;;;;;;6247123;23;20038;-88
2022/09/12 21:10:43;;;;;;;3.40;2.00;;;;;;;;;;6247050;23;20066;-77
2022/09/12 21:13:10;;;;;;;2.33;1.77;;;;;;;;;;6247045;23;20004;-91
2022/09/12 21:15:37;;;;;;;2.97;2.35;;;;;;;;;;6247278;22;20004;-76
2022/09/12 21:18:03;;;;;;;2.47;2.08;;;;;;;;;;6247160;23;20062;-75
2022/09/12 21:20:28;;;;;;;2.70;1.73;;;;;;;;;;6247104;23;20004;-75
2022/09/12 21:22:54;;;;;;;2.50;1.90;;;;;;;;;;6246876;23;20000;-76
2022/09/12 21:25:19;;;;;;;2.83;2.20;;;;;;;;;;6246856;22;20024;-85
2022/09/12 21:27:45;;;;;;;4.10;2.50;;;;;;;;;;6247870;23;20300;-86
2022/09/12 21:30:11;;;;;;;3.28;2.65;;;;;;;;;;6247167;23;20011;-90
2022/09/12 21:32:37;;;;;;;3.53;2.42;;;;;;;;;;6246942;23;20000;-75
2022/09/12 21:35:04;;;;;;;2.78;2.00;;;;;;;;;;6246691;22;20008;-75
2022/09/12 21:37:30;;;;;;;4.38;2.20;;;;;;;;;;6246749;23;20032;-78
2022/09/12 21:39:57;;;;;;;2.80;2.10;;;;;;;;;;6246856;23;20015;-88
2022/09/12 21:42:23;;;;;;;3.20;2.15;;;;;;;;;;6246867;23;20334;-75
2022/09/12 21:44:48;;;;;;;3.17;1.95;;;;;;;;;;6246770;22;20073;-90
2022/09/12 21:47:14;;;;;;;5.03;2.00;;;;;;;;;;6246807;23;20010;-76
2022/09/12 21:49:39;;;;;;;3.05;2.10;;;;;;;;;;6246627;23;20010;-88
2022/09/12 21:52:05;;;;;;;3.08;2.00;;;;;;;;;;6246823;23;20000;-84
2022/09/12 21:54:33;;;;;;;3.92;2.20;;;;;;;;;;6246524;22;20438;-75
2022/09/12 21:56:59;;;;;;;2.30;2.00;;;;;;;;;;6246643;23;20083;-87
2022/09/12 21:59:25;;;;;;;2.95;2.10;;;;;;;;;;6246625;23;20035;-75
2022/09/12 22:01:50;;;;;;;2.88;1.55;;;;;;;;;;6246728;23;20075;-75
2022/09/12 22:04:15;;;;;;;2.13;1.92;;;;;;;;;;6246683;22;20000;-87
